Time;durP1;ratioP1;P1;durP2;ratioP2;P2;SDS_P1;SDS_P2;PMS_P1;PMS_P2;Temp;Humidity;BMP_temperature;BMP_pressure;BME280_temperature;BME280_humidity;BME280_pressure;Samples;Min_cycle;Max_cycle;Signal;HPM_P1;HPM_P2
2021/12/19 00:09:07;;;;;;;11.93;5.97;;;7.50;99.90;;;;;;4985054;28;20081;-76
2021/12/19 00:11:33;;;;;;;10.70;5.77;;;7.40;99.90;;;;;;5013292;28;20038;-75
2021/12/19 00:14:00;;;;;;;10.47;5.87;;;7.40;99.90;;;;;;4979550;28;20033;-76
2021/12/19 00:16:26;;;;;;;10.77;4.97;;;7.40;99.90;;;;;;4995681;28;20462;-75
2021/12/19 00:18:52;;;;;;;9.80;5.17;;;7.30;99.90;;;;;;5013197;28;20057;-75
2021/12/19 00:21:20;;;;;;;13.13;5.93;;;7.30;99.90;;;;;;4995777;28;20088;-75
2021/12/19 00:23:48;;;;;;;12.17;5.97;;;7.30;99.90;;;;;;4979662;28;20053;-75
2021/12/19 00:26:15;;;;;;;12.27;6.30;;;7.30;99.90;;;;;;5013152;28;20426;-76
2021/12/19 00:28:44;;;;;;;11.63;6.40;;;7.20;99.90;;;;;;4995658;28;20054;-76
2021/12/19 00:31:10;;;;;;;12.97;5.97;;;7.20;99.90;;;;;;5012963;28;20371;-77
2021/12/19 00:33:37;;;;;;;13.00;6.40;;;7.20;99.90;;;;;;4995423;28;20092;-77
2021/12/19 00:36:04;;;;;;;14.00;6.80;;;7.20;99.90;;;;;;5013218;28;20025;-77
2021/12/19 00:38:30;;;;;;;12.70;5.93;;;7.20;99.90;;;;;;4979288;28;20057;-78
2021/12/19 00:40:57;;;;;;;11.90;6.33;;;7.20;99.90;;;;;;4995340;28;20018;-77
2021/12/19 00:43:37;;;;;;;13.13;6.60;;;7.10;99.90;;;;;;5013057;28;20088;-77
2021/12/19 00:46:07;;;;;;;13.90;6.93;;;7.10;99.90;;;;;;4995323;28;20489;-77
2021/12/19 00:48:54;;;;;;;16.90;7.17;;;7.10;99.90;;;;;;4995452;28;20037;-76
2021/12/19 00:51:25;;;;;;;13.47;6.27;;;7.10;99.90;;;;;;5012933;28;20021;-76
2021/12/19 00:53:53;;;;;;;15.37;7.33;;;7.10;99.90;;;;;;5013983;28;20018;-76
2021/12/19 00:56:19;;;;;;;14.83;7.07;;;7.10;99.90;;;;;;5016589;28;20022;-76
2021/12/19 00:58:45;;;;;;;15.70;7.50;;;7.10;99.90;;;;;;4999028;28;20037;-76
2021/12/19 01:01:13;;;;;;;16.30;7.87;;;7.20;99.90;;;;;;5016473;28;20037;-75
2021/12/19 01:03:43;;;;;;;16.23;7.73;;;7.10;99.90;;;;;;4983097;28;20065;-76
2021/12/19 01:06:09;;;;;;;18.77;7.53;;;7.10;99.90;;;;;;4998653;28;20029;-76
2021/12/19 01:08:35;;;;;;;17.03;7.73;;;7.10;99.90;;;;;;5016357;28;20014;-76
2021/12/19 01:11:01;;;;;;;17.17;8.10;;;7.10;99.90;;;;;;5016171;28;20105;-76
2021/12/19 01:13:27;;;;;;;20.17;8.57;;;7.10;99.90;;;;;;4982418;28;20486;-76
2021/12/19 01:15:53;;;;;;;16.57;7.47;;;7.20;99.90;;;;;;5016211;28;20033;-76
2021/12/19 01:18:19;;;;;;;17.37;8.47;;;7.30;99.90;;;;;;4998795;28;20061;-76
2021/12/19 01:20:45;;;;;;;18.27;7.57;;;7.20;99.90;;;;;;4998608;28;20061;-76
2021/12/19 01:23:11;;;;;;;17.30;8.20;;;7.20;99.90;;;;;;4998869;28;20355;-76
2021/12/19 01:25:37;;;;;;;21.70;8.93;;;7.10;99.90;;;;;;4998389;28;20034;-76
2021/12/19 01:28:04;;;;;;;18.73;8.77;;;7.20;99.90;;;;;;5015775;28;20112;-76
2021/12/19 01:30:29;;;;;;;20.60;8.67;;;7.20;99.90;;;;;;5015940;28;20073;-75
2021/12/19 01:32:55;;;;;;;24.13;10.63;;;7.20;99.90;;;;;;4998398;28;20026;-76
2021/12/19 01:35:24;;;;;;;27.10;10.80;;;7.20;99.90;;;;;;4998303;28;20040;-75
2021/12/19 01:37:50;;;;;;;23.57;10.23;;;7.20;99.90;;;;;;5015644;28;20068;-74
2021/12/19 01:40:18;;;;;;;26.07;11.10;;;7.20;99.90;;;;;;4982123;28;20100;-74
2021/12/19 01:42:46;;;;;;;24.67;10.70;;;7.20;99.90;;;;;;5015526;28;20076;-75
2021/12/19 01:45:20;;;;;;;24.47;10.07;;;7.20;99.90;;;;;;5015737;28;20030;-75
2021/12/19 01:47:47;;;;;;;24.87;10.67;;;7.20;99.90;;;;;;4998013;28;20029;-74
2021/12/19 01:50:13;;;;;;;26.70;10.97;;;7.20;99.90;;;;;;5015672;28;20356;-75
2021/12/19 01:52:39;;;;;;;26.30;10.80;;;7.20;99.90;;;;;;5015465;28;20033;-74
2021/12/19 01:55:05;;;;;;;29.13;10.77;;;7.20;99.90;;;;;;4997929;28;20033;-75
2021/12/19 01:57:31;;;;;;;24.00;10.53;;;7.20;99.90;;;;;;4998128;28;20089;-75
2021/12/19 01:59:56;;;;;;;26.23;11.43;;;7.20;99.90;;;;;;4981665;28;20030;-75
2021/12/19 02:02:23;;;;;;;27.57;10.63;;;7.20;99.90;;;;;;4981611;28;20076;-74
2021/12/19 02:04:49;;;;;;;26.53;10.73;;;7.20;99.90;;;;;;4981360;28;20053;-74
2021/12/19 02:07:15;;;;;;;27.87;11.73;;;7.20;99.90;;;;;;5014695;28;20026;-74
2021/12/19 02:09:44;;;;;;;27.10;10.70;;;7.20;99.90;;;;;;4997818;28;20022;-74
2021/12/19 02:12:10;;;;;;;30.80;10.97;;;7.20;99.90;;;;;;4997653;28;20445;-74
2021/12/19 02:14:36;;;;;;;24.80;9.83;;;7.20;99.90;;;;;;4997807;28;20050;-74
2021/12/19 02:17:02;;;;;;;27.93;11.43;;;7.20;99.90;;;;;;4997683;28;20108;-74
2021/12/19 02:19:32;;;;;;;27.63;11.00;;;7.20;99.90;;;;;;5014965;28;20041;-75
2021/12/19 02:21:59;;;;;;;31.10;12.33;;;7.30;99.90;;;;;;4997402;28;20029;-74
2021/12/19 02:24:24;;;;;;;28.43;11.27;;;7.30;99.90;;;;;;4981249;28;20091;-75
2021/12/19 02:26:51;;;;;;;25.80;10.47;;;7.20;99.90;;;;;;4997289;28;20026;-75
2021/12/19 02:29:16;;;;;;;27.63;10.77;;;7.30;99.90;;;;;;5014502;28;20061;-75
2021/12/19 02:31:43;;;;;;;26.33;10.90;;;7.30;99.90;;;;;;4997261;28;20022;-75
2021/12/19 02:34:19;;;;;;;30.80;12.77;;;7.30;99.90;;;;;;5014686;28;20072;-75
2021/12/19 02:50:21;;;;;;;30.55;12.45;;;7.30;99.90;;;;;;5015329;28;20044;-75
2021/12/19 02:52:47;;;;;;;32.90;12.60;;;7.30;99.90;;;;;;4980856;28;20018;-75
2021/12/19 02:55:17;;;;;;;36.47;12.77;;;7.30;99.90;;;;;;5014381;28;20105;-75
2021/12/19 02:57:43;;;;;;;32.60;12.57;;;7.40;99.90;;;;;;5014299;28;20524;-75
2021/12/19 03:00:13;;;;;;;34.07;13.37;;;7.30;99.90;;;;;;4980502;28;20034;-75
2021/12/19 03:02:39;;;;;;;31.17;12.20;;;7.40;99.90;;;;;;4996589;28;20026;-75
2021/12/19 03:05:05;;;;;;;30.20;12.80;;;7.40;99.90;;;;;;4996638;28;20034;-75
2021/12/19 03:07:32;;;;;;;30.73;13.40;;;7.40;99.90;;;;;;4980507;28;20482;-75
2021/12/19 03:18:04;;;;;;;26.73;10.82;;;7.40;99.90;;;;;;5014256;28;20033;-75
2021/12/19 03:20:33;;;;;;;24.55;10.02;;;7.40;99.90;;;;;;5014044;28;20030;-75
2021/12/19 03:22:59;;;;;;;21.30;8.97;;;7.40;99.90;;;;;;4996277;28;20479;-75
2021/12/19 03:25:26;;;;;;;21.80;8.37;;;7.40;99.90;;;;;;5013782;28;20037;-75
2021/12/19 03:27:52;;;;;;;18.13;7.80;;;7.50;99.90;;;;;;4980059;28;20026;-75
2021/12/19 03:30:18;;;;;;;19.13;7.60;;;7.40;99.90;;;;;;4996238;28;20088;-75
2021/12/19 03:32:44;;;;;;;15.50;6.63;;;7.40;99.90;;;;;;5013718;28;20102;-75
2021/12/19 03:35:11;;;;;;;20.20;7.20;;;7.50;99.90;;;;;;5013732;28;20064;-75
2021/12/19 03:37:37;;;;;;;20.13;7.30;;;7.50;99.90;;;;;;4980052;28;20026;-75
2021/12/19 03:40:10;;;;;;;18.83;6.97;;;7.50;99.90;;;;;;4996202;28;20088;-75
2021/12/19 03:42:41;;;;;;;14.10;6.23;;;7.50;99.90;;;;;;4996045;28;20026;-75
2021/12/19 03:45:10;;;;;;;14.70;5.43;;;7.50;99.90;;;;;;4995900;28;20429;-74
2021/12/19 03:47:37;;;;;;;15.67;6.57;;;7.50;99.90;;;;;;4996231;28;20030;-74
2021/12/19 03:50:10;;;;;;;17.97;6.20;;;7.50;99.90;;;;;;5013566;28;20474;-75
2021/12/19 03:52:35;;;;;;;18.63;7.37;;;7.50;99.90;;;;;;4995767;28;20087;-75
2021/12/19 03:55:01;;;;;;;13.10;5.57;;;7.50;99.90;;;;;;4995933;28;20518;-75
2021/12/19 03:57:27;;;;;;;16.97;5.90;;;7.50;99.90;;;;;;4979817;28;20037;-75
2021/12/19 03:59:53;;;;;;;16.90;7.40;;;7.40;99.90;;;;;;4996132;28;20397;-74
2021/12/19 04:02:26;;;;;;;18.90;7.77;;;7.50;99.90;;;;;;4995807;28;20026;-74
2021/12/19 04:04:54;;;;;;;19.23;8.02;;;7.50;99.90;;;;;;4995838;28;20037;-74
2021/12/19 04:07:22;;;;;;;23.20;9.47;;;7.50;99.90;;;;;;4995653;28;20371;-76
2021/12/19 04:09:48;;;;;;;21.97;9.13;;;7.50;99.90;;;;;;4995929;28;20026;-76
2021/12/19 04:12:14;;;;;;;23.50;9.77;;;7.40;99.90;;;;;;4995827;28;20045;-76
2021/12/19 04:14:39;;;;;;;21.00;10.10;;;7.50;99.90;;;;;;5013580;28;20478;-76
2021/12/19 04:17:05;;;;;;;23.27;9.97;;;7.50;99.90;;;;;;5013699;28;20041;-76
2021/12/19 04:19:31;;;;;;;23.80;10.17;;;7.50;99.90;;;;;;4996032;28;20030;-75
2021/12/19 04:21:58;;;;;;;24.77;9.30;;;7.50;99.90;;;;;;4995800;28;20022;-76
2021/12/19 04:24:23;;;;;;;25.10;9.67;;;7.60;99.90;;;;;;4995843;28;20034;-76
2021/12/19 04:26:49;;;;;;;22.17;9.33;;;7.50;99.90;;;;;;5013595;28;20060;-76
2021/12/19 04:29:15;;;;;;;27.27;10.27;;;7.50;99.90;;;;;;5014797;28;20050;-76
2021/12/19 04:31:40;;;;;;;31.00;11.67;;;7.50;99.90;;;;;;4999665;28;20359;-75
2021/12/19 04:34:06;;;;;;;27.30;12.13;;;7.60;99.90;;;;;;4999495;28;20103;-76
2021/12/19 04:36:37;;;;;;;28.93;11.73;;;7.60;99.90;;;;;;5017221;28;20057;-76
2021/12/19 04:42:20;;;;;;;34.60;14.43;;;7.60;99.90;;;;;;4988535;28;20084;-74
2021/12/19 05:00:47;;;;;;;28.87;12.43;;;7.60;99.90;;;;;;4999496;28;20128;-76
2021/12/19 05:03:42;;;;;;;30.97;12.57;;;7.70;99.90;;;;;;4998865;28;20068;-76
2021/12/19 05:06:13;;;;;;;29.67;12.13;;;7.70;99.90;;;;;;5000961;28;20070;-76
2021/12/19 05:14:19;;;;;;;19.87;9.30;;;7.60;99.90;;;;;;4974703;28;20034;-77
2021/12/19 05:16:47;;;;;;;20.10;9.52;;;7.60;99.90;;;;;;4983606;28;20042;-77
2021/12/19 05:19:25;;;;;;;21.57;10.00;;;7.70;99.90;;;;;;4983074;28;20064;-77
2021/12/19 05:21:55;;;;;;;24.30;9.60;;;7.70;99.90;;;;;;4998620;28;20486;-77
2021/12/19 05:27:03;;;;;;;19.77;8.60;;;7.70;99.90;;;;;;5016300;28;20050;-77
2021/12/19 05:29:30;;;;;;;18.80;8.37;;;7.70;99.90;;;;;;5015923;28;20046;-77
2021/12/19 05:31:56;;;;;;;19.17;8.60;;;7.70;99.90;;;;;;5015903;28;20045;-77
2021/12/19 05:34:21;;;;;;;18.00;8.07;;;7.80;99.90;;;;;;5015940;28;20030;-77
2021/12/19 05:47:25;;;;;;;12.67;5.10;;;7.80;99.90;;;;;;5016657;28;20034;-77
2021/12/19 05:49:51;;;;;;;13.17;6.07;;;7.80;99.90;;;;;;4998086;28;20025;-76
2021/12/19 05:52:17;;;;;;;16.70;6.50;;;7.80;99.90;;;;;;4998062;28;20030;-77
2021/12/19 05:54:43;;;;;;;18.20;7.37;;;7.80;99.90;;;;;;4998189;28;20034;-77
2021/12/19 05:57:09;;;;;;;14.60;6.07;;;7.80;99.90;;;;;;4997899;28;20026;-77
2021/12/19 05:59:35;;;;;;;12.30;5.40;;;7.70;99.90;;;;;;5015426;28;20080;-77
2021/12/19 06:02:01;;;;;;;10.70;4.67;;;7.80;99.90;;;;;;5015416;28;20087;-77
2021/12/19 06:04:27;;;;;;;11.67;4.57;;;7.80;99.90;;;;;;4981682;28;20029;-77
2021/12/19 06:06:52;;;;;;;10.57;4.40;;;7.90;99.90;;;;;;4997677;28;20038;-77
2021/12/19 06:09:18;;;;;;;9.70;3.63;;;7.90;99.90;;;;;;5015254;28;20038;-76
2021/12/19 06:11:43;;;;;;;10.53;4.03;;;7.90;99.90;;;;;;5015212;28;20037;-77
2021/12/19 06:14:09;;;;;;;10.93;4.37;;;7.90;99.90;;;;;;5015134;28;20030;-77
2021/12/19 06:16:35;;;;;;;10.17;3.50;;;7.90;99.90;;;;;;5015211;28;20038;-77
2021/12/19 06:19:01;;;;;;;9.83;3.67;;;7.90;99.90;;;;;;4997412;28;20393;-77
2021/12/19 06:21:26;;;;;;;10.03;3.93;;;7.90;99.90;;;;;;4981261;28;20041;-77
2021/12/19 06:23:52;;;;;;;11.70;4.17;;;7.90;99.90;;;;;;4999749;28;20060;-77
2021/12/19 06:26:18;;;;;;;8.87;3.03;;;8.00;99.90;;;;;;4996601;28;20120;-77
2021/12/19 06:28:44;;;;;;;9.20;3.20;;;7.90;99.90;;;;;;4995955;28;20057;-77
2021/12/19 06:31:10;;;;;;;7.60;2.60;;;7.90;99.90;;;;;;4979507;28;20038;-76
2021/12/19 06:33:35;;;;;;;8.50;2.57;;;7.80;99.90;;;;;;5014588;28;20062;-77
2021/12/19 06:36:02;;;;;;;8.60;2.60;;;7.90;99.90;;;;;;5018131;28;20069;-77
2021/12/19 06:38:28;;;;;;;6.37;1.73;;;7.90;99.90;;;;;;5021882;28;20034;-77
2021/12/19 06:40:54;;;;;;;5.80;1.70;;;7.90;99.90;;;;;;5013309;28;20095;-78
2021/12/19 06:43:19;;;;;;;3.47;0.83;;;7.80;99.90;;;;;;5013030;28;20168;-78
2021/12/19 06:45:45;;;;;;;3.10;1.17;;;7.90;99.90;;;;;;5014222;28;20505;-77
2021/12/19 06:48:12;;;;;;;4.23;1.10;;;7.90;99.90;;;;;;4996983;28;20034;-77
2021/12/19 06:50:37;;;;;;;5.07;1.20;;;7.90;99.90;;;;;;4996367;28;20033;-78
2021/12/19 06:53:03;;;;;;;3.53;0.80;;;7.90;99.90;;;;;;4996525;28;20429;-75
2021/12/19 06:55:29;;;;;;;5.13;1.27;;;7.90;99.90;;;;;;5014381;28;20036;-75
2021/12/19 06:57:54;;;;;;;5.27;1.10;;;7.80;99.90;;;;;;5014194;28;20473;-76
2021/12/19 07:00:23;;;;;;;5.47;1.67;;;7.80;99.90;;;;;;4964519;28;20029;-74
2021/12/19 07:02:49;;;;;;;4.40;0.90;;;7.80;99.90;;;;;;4996941;28;20038;-76
2021/12/19 07:05:15;;;;;;;5.73;1.13;;;7.70;99.90;;;;;;5014151;28;20042;-74
2021/12/19 07:07:40;;;;;;;5.93;0.93;;;7.80;99.90;;;;;;4996587;28;20029;-74
2021/12/19 07:10:08;;;;;;;4.33;1.07;;;7.80;99.90;;;;;;5014195;28;20037;-74
2021/12/19 07:12:34;;;;;;;3.57;0.73;;;7.80;99.90;;;;;;5014229;28;20033;-73
2021/12/19 07:15:00;;;;;;;2.67;0.67;;;7.80;99.90;;;;;;4996612;28;20038;-74
2021/12/19 07:17:26;;;;;;;2.10;0.50;;;7.80;99.90;;;;;;4980287;28;20540;-74
2021/12/19 07:19:52;;;;;;;2.57;0.60;;;7.80;99.90;;;;;;4980349;28;20038;-74
2021/12/19 07:22:18;;;;;;;2.53;0.50;;;7.70;99.90;;;;;;4980356;28;20037;-74
2021/12/19 07:24:45;;;;;;;2.07;0.50;;;7.70;99.90;;;;;;4996313;28;20117;-74
2021/12/19 07:27:12;;;;;;;2.63;0.40;;;7.70;99.90;;;;;;5013805;28;20038;-74
2021/12/19 07:29:38;;;;;;;1.77;0.50;;;7.70;99.90;;;;;;5013827;28;20497;-74
2021/12/19 07:32:04;;;;;;;1.97;0.30;;;7.70;99.90;;;;;;4996326;28;20036;-74
2021/12/19 07:34:33;;;;;;;1.57;0.30;;;7.70;99.90;;;;;;4979995;28;20449;-75
2021/12/19 07:36:59;;;;;;;1.60;0.40;;;7.60;99.90;;;;;;4980461;28;20482;-74
2021/12/19 07:42:04;;;;;;;1.97;0.40;;;7.60;99.90;;;;;;5013680;28;20109;-74
2021/12/19 07:44:30;;;;;;;1.63;0.50;;;7.60;99.90;;;;;;4980650;28;20058;-74
2021/12/19 07:46:56;;;;;;;1.50;0.50;;;7.60;99.90;;;;;;4979667;28;20069;-74
2021/12/19 07:49:22;;;;;;;3.10;0.50;;;7.60;99.90;;;;;;4995903;28;20026;-75
2021/12/19 07:51:47;;;;;;;1.33;0.60;;;7.50;99.90;;;;;;5013671;28;20034;-75
2021/12/19 07:54:13;;;;;;;3.17;0.73;;;7.60;99.90;;;;;;5013345;28;20375;-75
2021/12/19 07:56:39;;;;;;;3.60;0.50;;;7.70;99.90;;;;;;4979643;28;20476;-75
2021/12/19 07:59:05;;;;;;;3.60;0.80;;;7.50;99.90;;;;;;4979632;28;20037;-75
2021/12/19 08:01:32;;;;;;;3.63;0.83;;;7.50;99.90;;;;;;4995767;28;20445;-74
2021/12/19 08:03:57;;;;;;;2.57;0.60;;;7.50;99.90;;;;;;4995075;28;20029;-75
2021/12/19 08:06:23;;;;;;;2.83;0.60;;;7.50;99.90;;;;;;5013386;28;20104;-74
2021/12/19 08:08:52;;;;;;;3.07;0.67;;;7.50;99.90;;;;;;5013239;28;20072;-75
2021/12/19 08:14:04;;;;;;;1.60;0.50;;;7.50;99.90;;;;;;5013707;28;20045;-74
2021/12/19 08:16:29;;;;;;;6.77;0.80;;;7.50;99.90;;;;;;4995681;28;20030;-77
2021/12/19 08:18:55;;;;;;;3.87;0.93;;;7.50;99.90;;;;;;5013121;28;20040;-78
2021/12/19 08:21:21;;;;;;;1.93;0.57;;;7.50;99.90;;;;;;4995562;28;20045;-78
2021/12/19 08:23:47;;;;;;;1.60;0.50;;;7.50;99.90;;;;;;4995945;28;20038;-76
2021/12/19 08:26:13;;;;;;;3.77;0.67;;;7.60;99.90;;;;;;5013077;28;20386;-78
2021/12/19 08:28:39;;;;;;;2.03;0.43;;;7.60;99.90;;;;;;4992237;28;20050;-74
2021/12/19 08:31:04;;;;;;;2.60;0.60;;;7.60;99.90;;;;;;4993458;28;20030;-75
2021/12/19 08:33:30;;;;;;;1.80;0.60;;;7.70;99.90;;;;;;4976222;28;20033;-75
2021/12/19 08:35:59;;;;;;;2.60;0.50;;;7.70;99.90;;;;;;4993517;28;20066;-75
2021/12/19 08:38:25;;;;;;;0.67;0.37;;;7.70;99.90;;;;;;4992179;28;20030;-76
2021/12/19 08:40:51;;;;;;;1.50;0.50;;;7.70;99.90;;;;;;4992116;28;20430;-75
2021/12/19 08:43:17;;;;;;;1.50;0.60;;;7.70;99.90;;;;;;4993429;28;20501;-76
2021/12/19 08:45:43;;;;;;;1.60;0.70;;;7.80;99.90;;;;;;4993418;28;20030;-76
2021/12/19 08:48:09;;;;;;;1.87;0.50;;;7.80;99.90;;;;;;4993446;28;20033;-75
2021/12/19 08:50:35;;;;;;;2.40;0.60;;;8.00;99.90;;;;;;4993263;28;20088;-76
2021/12/19 08:53:00;;;;;;;2.47;0.43;;;7.90;99.90;;;;;;4992286;28;20030;-75
2021/12/19 08:55:26;;;;;;;1.77;0.47;;;7.90;99.90;;;;;;4993339;28;20097;-75
2021/12/19 08:57:52;;;;;;;1.30;0.40;;;8.00;99.90;;;;;;4975888;28;20402;-74
2021/12/19 09:00:19;;;;;;;1.33;0.50;;;7.90;99.90;;;;;;4993195;28;20105;-74
2021/12/19 09:02:47;;;;;;;1.83;0.47;;;8.00;99.90;;;;;;4993348;28;20464;-74
2021/12/19 09:05:13;;;;;;;2.83;0.57;;;7.90;99.90;;;;;;4993051;28;20434;-75
2021/12/19 09:07:39;;;;;;;2.17;0.60;;;7.90;99.90;;;;;;4993167;28;20511;-75
2021/12/19 09:10:07;;;;;;;1.80;0.60;;;8.00;99.90;;;;;;4975877;28;20030;-75
2021/12/19 09:12:32;;;;;;;1.97;0.60;;;7.90;99.90;;;;;;4993255;28;20042;-76
2021/12/19 09:14:58;;;;;;;5.10;1.30;;;7.90;99.90;;;;;;4976872;28;20418;-75
2021/12/19 09:17:24;;;;;;;2.23;0.67;;;8.00;99.90;;;;;;4996780;28;20042;-77
2021/12/19 09:19:50;;;;;;;2.73;0.63;;;8.10;99.90;;;;;;4996655;28;20076;-78
2021/12/19 09:22:16;;;;;;;3.00;0.73;;;8.00;99.90;;;;;;4996520;28;20487;-78
2021/12/19 09:24:42;;;;;;;2.77;0.60;;;8.00;99.90;;;;;;4996488;28;20038;-77
2021/12/19 09:27:09;;;;;;;2.27;0.67;;;8.00;99.90;;;;;;4979153;28;20077;-78
2021/12/19 09:29:35;;;;;;;3.90;0.83;;;8.00;99.90;;;;;;4994765;28;20455;-77
2021/12/19 09:32:02;;;;;;;2.50;0.80;;;8.00;99.90;;;;;;4994972;28;20425;-77
2021/12/19 09:34:29;;;;;;;2.10;0.70;;;8.00;99.90;;;;;;4995134;28;20025;-77
2021/12/19 09:36:56;;;;;;;2.20;0.67;;;8.10;99.90;;;;;;4996373;28;20490;-77
2021/12/19 09:39:23;;;;;;;2.43;0.50;;;8.10;99.90;;;;;;4996245;28;20513;-77
2021/12/19 09:41:57;;;;;;;1.53;0.60;;;8.10;99.90;;;;;;4995096;28;20060;-77
2021/12/19 09:44:23;;;;;;;1.52;0.63;;;8.00;99.90;;;;;;4995016;28;20057;-77
2021/12/19 09:46:49;;;;;;;2.23;0.60;;;8.00;99.90;;;;;;4994761;28;20052;-77
2021/12/19 09:49:18;;;;;;;2.80;0.47;;;8.10;99.90;;;;;;4996086;28;20026;-77
2021/12/19 09:51:44;;;;;;;3.60;0.60;;;8.00;99.90;;;;;;4994893;28;20449;-77
2021/12/19 09:54:11;;;;;;;1.80;0.63;;;8.00;99.90;;;;;;4995948;28;20030;-77
2021/12/19 09:56:39;;;;;;;2.30;0.50;;;8.00;99.90;;;;;;4995963;28;20035;-77
2021/12/19 09:59:13;;;;;;;4.03;0.77;;;8.00;99.90;;;;;;4995646;28;20033;-77
2021/12/19 10:01:40;;;;;;;4.57;1.47;;;8.00;99.90;;;;;;4994361;28;20019;-77
2021/12/19 10:04:29;;;;;;;4.63;1.30;;;8.00;99.90;;;;;;4995731;28;20026;-77
2021/12/19 10:07:19;;;;;;;8.20;1.80;;;8.00;99.90;;;;;;4995534;28;20115;-77
2021/12/19 10:10:10;;;;;;;7.47;1.87;;;8.00;99.90;;;;;;4989306;28;20038;-77
2021/12/19 10:12:48;;;;;;;7.47;2.23;;;8.10;99.90;;;;;;4995579;28;20061;-77
2021/12/19 10:15:20;;;;;;;10.77;2.53;;;8.10;99.90;;;;;;4995437;28;20034;-77
2021/12/19 10:17:47;;;;;;;7.33;2.00;;;8.10;99.90;;;;;;4995517;28;20026;-76
2021/12/19 10:20:16;;;;;;;8.13;2.60;;;8.20;99.90;;;;;;4994331;28;20046;-77
2021/12/19 10:22:45;;;;;;;8.67;2.80;;;8.20;99.90;;;;;;4995386;28;20076;-77
2021/12/19 10:25:30;;;;;;;9.80;2.87;;;8.10;99.90;;;;;;4995226;28;20040;-74
2021/12/19 10:28:05;;;;;;;10.50;2.93;;;8.20;99.90;;;;;;4994644;28;20395;-74
2021/12/19 10:30:34;;;;;;;8.13;2.87;;;8.20;99.90;;;;;;4997343;28;20125;-74
2021/12/19 10:33:09;;;;;;;8.03;3.20;;;8.20;99.90;;;;;;4997452;28;20030;-75
2021/12/19 10:35:47;;;;;;;11.23;3.13;;;8.20;99.90;;;;;;4997207;28;20038;-74
2021/12/19 10:38:25;;;;;;;10.90;3.17;;;8.20;99.90;;;;;;5014777;28;20022;-74
2021/12/19 10:40:54;;;;;;;10.30;3.17;;;8.20;99.90;;;;;;5014623;28;20026;-73
2021/12/19 10:43:23;;;;;;;6.73;2.40;;;8.20;99.90;;;;;;5014673;28;20098;-74
2021/12/19 10:45:57;;;;;;;7.40;2.23;;;8.10;99.90;;;;;;4980955;28;20041;-74
2021/12/19 10:48:28;;;;;;;8.57;2.25;;;8.20;99.90;;;;;;5014815;28;20421;-74
2021/12/19 10:51:05;;;;;;;5.83;1.97;;;8.20;99.90;;;;;;5014561;28;20034;-73
2021/12/19 10:53:34;;;;;;;6.63;2.47;;;8.20;99.90;;;;;;4996773;28;20029;-73
2021/12/19 10:56:03;;;;;;;7.47;2.37;;;8.20;99.90;;;;;;5014411;28;20034;-74
2021/12/19 10:58:36;;;;;;;8.37;2.50;;;8.20;99.90;;;;;;5014320;28;20033;-73
2021/12/19 11:01:07;;;;;;;9.60;2.85;;;8.20;99.90;;;;;;5014401;28;20021;-74
2021/12/19 11:03:37;;;;;;;8.73;2.70;;;8.20;99.90;;;;;;5014293;28;20466;-73
2021/12/19 11:06:25;;;;;;;7.23;2.80;;;8.20;99.90;;;;;;5014188;28;20033;-75
2021/12/19 11:08:52;;;;;;;9.10;3.37;;;8.30;99.90;;;;;;5014227;28;20026;-77
2021/12/19 11:11:49;;;;;;;10.73;3.00;;;8.30;99.90;;;;;;5014186;28;20065;-77
2021/12/19 11:14:24;;;;;;;7.83;2.97;;;8.20;99.90;;;;;;4992243;28;20030;-77
2021/12/19 11:16:56;;;;;;;10.37;3.00;;;8.20;99.90;;;;;;4996532;28;20053;-77
2021/12/19 11:19:23;;;;;;;10.27;3.40;;;8.20;99.90;;;;;;4996477;28;20026;-77
2021/12/19 11:21:49;;;;;;;11.90;3.33;;;8.30;99.90;;;;;;5013937;28;20030;-77
2021/12/19 11:24:16;;;;;;;10.40;4.13;;;8.20;99.90;;;;;;5013881;28;20044;-77
2021/12/19 11:26:45;;;;;;;9.67;3.37;;;8.30;99.90;;;;;;4996332;28;20042;-77
2021/12/19 11:29:12;;;;;;;9.00;4.23;;;8.20;99.90;;;;;;5013747;28;20053;-77
2021/12/19 11:31:39;;;;;;;9.60;3.73;;;8.20;99.90;;;;;;4980087;28;20034;-77
2021/12/19 11:34:36;;;;;;;8.63;3.13;;;8.30;99.90;;;;;;4996188;28;20553;-76
2021/12/19 11:37:07;;;;;;;13.03;3.80;;;8.30;99.90;;;;;;5013979;28;20038;-75
2021/12/19 11:39:37;;;;;;;8.63;3.53;;;8.20;99.90;;;;;;5012584;28;20030;-76
2021/12/19 11:42:10;;;;;;;8.63;3.07;;;8.30;99.90;;;;;;4995919;28;20472;-76
2021/12/19 11:44:51;;;;;;;8.70;3.40;;;8.30;99.90;;;;;;4996010;28;20021;-76
2021/12/19 11:47:37;;;;;;;9.67;4.00;;;8.30;99.90;;;;;;5013563;28;20109;-76
2021/12/19 11:50:21;;;;;;;10.77;4.47;;;8.30;99.90;;;;;;5013575;28;20024;-76
2021/12/19 11:52:49;;;;;;;13.60;5.20;;;8.30;99.90;;;;;;5013640;28;20478;-74
2021/12/19 11:55:14;;;;;;;12.37;4.10;;;8.30;99.90;;;;;;4995697;28;20096;-76
2021/12/19 11:58:09;;;;;;;10.73;4.20;;;8.20;99.90;;;;;;5008684;28;20025;-76
2021/12/19 12:00:55;;;;;;;9.25;3.60;;;8.30;99.90;;;;;;4997804;28;20036;-76
2021/12/19 12:03:26;;;;;;;13.27;3.80;;;8.30;99.90;;;;;;5014781;28;20038;-73
2021/12/19 12:05:57;;;;;;;8.53;3.50;;;8.30;99.90;;;;;;5032989;28;20021;-76
2021/12/19 12:08:25;;;;;;;12.87;3.90;;;8.30;99.90;;;;;;5032974;28;20053;-73
2021/12/19 12:10:59;;;;;;;14.73;4.13;;;8.30;99.90;;;;;;5033119;28;20033;-73
2021/12/19 12:13:32;;;;;;;9.45;3.80;;;8.30;99.90;;;;;;5015224;28;20033;-74
2021/12/19 12:16:33;;;;;;;7.07;2.63;;;8.30;99.90;;;;;;5033037;28;20138;-74
2021/12/19 12:19:02;;;;;;;9.50;3.33;;;8.30;99.90;;;;;;5009352;28;20087;-74
2021/12/19 12:24:06;;;;;;;10.60;3.80;;;8.40;99.90;;;;;;5032828;28;20034;-74
2021/12/19 12:26:47;;;;;;;9.37;2.70;;;8.40;99.90;;;;;;5032792;28;20025;-75
2021/12/19 12:29:13;;;;;;;7.43;3.17;;;8.40;99.90;;;;;;5014811;28;20120;-74
2021/12/19 12:31:42;;;;;;;7.03;2.53;;;8.40;99.90;;;;;;5014973;28;20126;-76
2021/12/19 12:34:10;;;;;;;6.13;2.20;;;8.40;99.90;;;;;;5015444;28;20022;-76
2021/12/19 12:36:36;;;;;;;6.13;2.47;;;8.30;99.90;;;;;;5015147;28;20113;-76
2021/12/19 12:39:07;;;;;;;9.73;2.07;;;8.40;99.90;;;;;;5014999;28;20065;-75
2021/12/19 12:44:11;;;;;;;8.47;2.63;;;8.40;99.90;;;;;;5015207;28;20038;-75
2021/12/19 12:46:37;;;;;;;10.10;3.03;;;8.30;99.90;;;;;;5014739;28;20099;-75
2021/12/19 12:49:06;;;;;;;6.13;2.43;;;8.30;99.90;;;;;;5032513;28;20429;-75
2021/12/19 12:51:35;;;;;;;6.50;2.60;;;8.30;99.90;;;;;;5018741;28;20104;-75
2021/12/19 12:54:21;;;;;;;10.43;2.20;;;8.40;99.90;;;;;;5018628;28;20018;-75
2021/12/19 12:56:55;;;;;;;9.93;2.03;;;8.40;99.90;;;;;;5035075;28;20109;-75
2021/12/19 12:59:22;;;;;;;;;;;8.30;99.90;;;;;;5036782;28;20035;-75
2021/12/19 13:01:52;;;;;;;7.70;2.17;;;8.40;99.90;;;;;;5018252;28;20304;-75
2021/12/19 13:04:25;;;;;;;8.33;2.37;;;8.40;99.90;;;;;;5008292;28;20014;-75
2021/12/19 13:07:06;;;;;;;9.65;2.47;;;8.40;99.90;;;;;;5032796;28;20084;-74
2021/12/19 13:09:41;;;;;;;8.07;2.43;;;8.40;99.90;;;;;;4999873;28;20030;-74
2021/12/19 13:12:20;;;;;;;6.97;2.60;;;8.40;99.90;;;;;;5024130;28;20033;-74
2021/12/19 13:14:48;;;;;;;9.03;2.70;;;8.40;99.90;;;;;;5015295;28;20084;-74
2021/12/19 13:17:17;;;;;;;8.07;2.40;;;8.40;99.80;;;;;;5015716;28;20033;-74
2021/12/19 13:19:45;;;;;;;7.20;2.13;;;8.30;99.90;;;;;;4998350;28;20479;-74
2021/12/19 13:22:14;;;;;;;5.67;2.13;;;8.40;99.90;;;;;;4998529;28;20064;-75
2021/12/19 13:24:41;;;;;;;8.27;2.57;;;8.30;99.90;;;;;;4998429;28;20022;-74
2021/12/19 13:27:15;;;;;;;10.10;2.90;;;8.30;99.90;;;;;;5016340;28;20086;-74
2021/12/19 13:29:54;;;;;;;5.68;1.98;;;8.40;99.90;;;;;;4994318;28;20101;-74
2021/12/19 13:32:46;;;;;;;5.83;1.60;;;8.40;99.90;;;;;;4996084;28;20114;-75
2021/12/19 13:35:20;;;;;;;6.00;2.00;;;8.30;99.90;;;;;;4992847;28;20030;-74
2021/12/19 13:37:57;;;;;;;4.83;1.60;;;8.40;99.90;;;;;;4994972;28;20391;-74
2021/12/19 13:40:51;;;;;;;5.67;1.33;;;8.40;99.90;;;;;;4994801;28;20031;-73
2021/12/19 13:43:19;;;;;;;7.53;1.93;;;8.40;99.90;;;;;;4994899;28;20106;-72
2021/12/19 13:45:55;;;;;;;5.47;1.70;;;8.40;99.90;;;;;;4995930;28;20427;-73
2021/12/19 13:48:31;;;;;;;4.70;2.03;;;8.50;99.90;;;;;;4994678;28;20024;-72
2021/12/19 13:51:05;;;;;;;6.00;1.70;;;8.40;99.90;;;;;;4994634;28;20026;-72
2021/12/19 13:53:33;;;;;;;6.95;2.00;;;8.40;99.90;;;;;;4994823;28;20022;-72
2021/12/19 13:56:02;;;;;;;5.40;1.57;;;8.40;99.90;;;;;;4994612;28;20037;-73
2021/12/19 13:58:42;;;;;;;6.83;1.87;;;8.40;99.90;;;;;;4994394;28;20501;-73
2021/12/19 14:01:18;;;;;;;6.37;1.83;;;8.40;99.90;;;;;;4994846;28;20046;-73
2021/12/19 14:03:57;;;;;;;5.30;1.60;;;8.40;99.90;;;;;;4994410;28;20054;-73
2021/12/19 14:06:35;;;;;;;6.60;1.80;;;8.40;99.90;;;;;;4994450;28;20073;-73
2021/12/19 14:09:21;;;;;;;6.37;1.87;;;8.40;99.90;;;;;;4994426;28;20018;-73
2021/12/19 14:11:57;;;;;;;5.37;1.43;;;8.50;99.90;;;;;;4995403;28;20019;-73
2021/12/19 14:14:30;;;;;;;4.23;1.57;;;8.40;99.90;;;;;;4995628;28;20025;-73
2021/12/19 14:17:02;;;;;;;6.47;1.83;;;8.40;99.90;;;;;;4994439;28;20053;-73
2021/12/19 14:19:48;;;;;;;6.87;2.63;;;8.40;99.90;;;;;;4995413;28;20018;-74